Time;durP1;ratioP1;P1;durP2;ratioP2;P2;SDS_P1;SDS_P2;PMS_P1;PMS_P2;Temp;Humidity;BMP_temperature;BMP_pressure;BME280_temperature;BME280_humidity;BME280_pressure;Samples;Min_cycle;Max_cycle;Signal;HPM_P1;HPM_P2
2022/12/08 00:01:58;;;;;;;1.30;0.80;;;4.70;99.90;;;;;;5032384;28;20572;-76
2022/12/08 00:04:24;;;;;;;2.55;0.80;;;4.70;99.90;;;;;;5033013;28;20033;-75
2022/12/08 00:09:40;;;;;;;1.90;0.95;;;4.70;99.90;;;;;;5033412;28;20159;-74
2022/12/08 00:12:16;;;;;;;2.90;1.30;;;4.70;99.90;;;;;;5025645;28;20116;-75
2022/12/08 00:14:44;;;;;;;1.75;1.33;;;4.70;99.90;;;;;;5018653;28;20367;-75
2022/12/08 00:17:15;;;;;;;2.50;1.10;;;4.70;99.90;;;;;;5033120;28;20029;-75
2022/12/08 00:19:41;;;;;;;1.77;1.10;;;5.40;99.90;;;;;;5033566;28;20091;-75
2022/12/08 00:22:09;;;;;;;3.45;1.30;;;4.60;99.90;;;;;;5031695;28;20482;-75
2022/12/08 00:24:39;;;;;;;2.28;1.27;;;4.60;99.90;;;;;;5032608;28;20034;-75
2022/12/08 00:27:06;;;;;;;1.65;1.45;;;4.60;99.90;;;;;;5032361;28;20021;-75
2022/12/08 00:29:31;;;;;;;1.50;1.40;;;4.50;99.90;;;;;;5032012;28;20489;-74
2022/12/08 00:31:57;;;;;;;1.73;1.40;;;4.40;99.90;;;;;;5018388;28;20032;-74
2022/12/08 00:34:22;;;;;;;1.80;1.20;;;4.40;99.90;;;;;;5032380;28;20446;-75
2022/12/08 00:36:48;;;;;;;1.70;1.60;;;4.30;99.90;;;;;;5032048;28;20033;-74
2022/12/08 00:39:15;;;;;;;2.45;1.40;;;4.20;99.90;;;;;;5032462;28;20490;-75
2022/12/08 00:44:26;;;;;;;4.53;1.55;;;4.20;99.90;;;;;;5031773;28;20139;-74
2022/12/08 00:46:51;;;;;;;2.63;2.42;;;4.20;99.90;;;;;;5031703;28;20100;-76
2022/12/08 00:49:20;;;;;;;2.63;2.00;;;4.20;99.90;;;;;;5032448;28;20501;-75
2022/12/08 00:51:46;;;;;;;2.63;2.42;;;4.20;99.90;;;;;;5032155;28;20474;-75
2022/12/08 00:54:12;;;;;;;3.25;2.63;;;4.30;99.90;;;;;;5032047;28;20026;-74
2022/12/08 00:56:38;;;;;;;5.50;3.47;;;4.30;99.90;;;;;;5046400;28;20075;-75
2022/12/08 00:59:04;;;;;;;4.53;3.22;;;4.30;99.90;;;;;;5033851;28;20444;-74
2022/12/08 01:01:31;;;;;;;3.92;3.03;;;4.20;99.90;;;;;;5032078;28;20051;-76
2022/12/08 01:03:56;;;;;;;5.00;2.97;;;4.20;99.90;;;;;;5031652;28;20033;-75
2022/12/08 01:06:22;;;;;;;4.18;2.97;;;4.30;99.90;;;;;;5031686;28;20083;-75
2022/12/08 01:08:48;;;;;;;5.57;2.72;;;4.30;99.90;;;;;;5032221;28;20034;-75
2022/12/08 01:11:16;;;;;;;3.50;2.33;;;4.30;99.90;;;;;;5031310;28;20424;-76
2022/12/08 01:13:44;;;;;;;4.65;2.70;;;4.40;99.90;;;;;;5032222;28;20099;-75
2022/12/08 01:16:27;;;;;;;5.68;2.60;;;4.40;99.90;;;;;;5032202;28;20036;-76
2022/12/08 01:18:53;;;;;;;5.15;2.20;;;4.50;99.90;;;;;;5031435;28;20029;-76
2022/12/08 01:21:21;;;;;;;5.15;2.20;;;4.50;99.90;;;;;;5032530;28;20636;-74
2022/12/08 01:23:46;;;;;;;4.63;1.83;;;4.50;99.90;;;;;;5033014;28;20155;-74
2022/12/08 01:26:15;;;;;;;8.90;1.75;;;4.60;99.90;;;;;;5031853;28;20116;-77
2022/12/08 01:28:41;;;;;;;1.77;1.65;;;4.60;99.90;;;;;;5032373;28;20108;-75
2022/12/08 01:31:16;;;;;;;7.15;2.00;;;4.60;99.90;;;;;;5032360;28;20052;-75
2022/12/08 01:33:42;;;;;;;5.43;1.42;;;4.60;99.90;;;;;;5032023;28;20018;-75
2022/12/08 01:36:18;;;;;;;2.88;1.40;;;4.70;99.90;;;;;;5032383;28;20021;-76
2022/12/08 01:38:43;;;;;;;4.05;1.27;;;4.70;99.90;;;;;;5031905;28;20384;-76
2022/12/08 01:41:13;;;;;;;9.57;1.17;;;4.80;99.90;;;;;;5032183;28;20389;-76
2022/12/08 01:44:01;;;;;;;2.17;0.80;;;4.90;99.90;;;;;;5032559;28;20125;-75
2022/12/08 01:46:29;;;;;;;1.67;0.77;;;4.90;99.90;;;;;;5031865;28;20040;-75
2022/12/08 01:49:29;;;;;;;1.75;0.65;;;4.90;99.90;;;;;;5032178;28;20033;-75
2022/12/08 01:52:10;;;;;;;2.45;1.00;;;4.80;99.90;;;;;;5033764;28;20033;-75
2022/12/08 01:54:44;;;;;;;2.45;0.93;;;4.80;99.90;;;;;;5035969;28;20400;-76
2022/12/08 01:57:15;;;;;;;7.38;1.05;;;4.70;99.90;;;;;;5035992;28;20085;-77
2022/12/08 01:59:47;;;;;;;2.22;0.70;;;4.70;99.90;;;;;;5035763;28;20116;-75
2022/12/08 02:02:12;;;;;;;0.50;0.50;;;4.60;99.90;;;;;;5036117;28;20040;-76
2022/12/08 02:04:38;;;;;;;4.28;0.80;;;4.60;99.90;;;;;;5036310;28;20108;-75
2022/12/08 02:07:05;;;;;;;2.05;0.70;;;4.50;99.90;;;;;;5035436;28;20026;-76
2022/12/08 02:09:31;;;;;;;1.90;0.80;;;4.50;99.90;;;;;;5036939;28;20025;-76
2022/12/08 02:11:58;;;;;;;1.35;0.90;;;4.50;99.90;;;;;;5036096;28;20540;-75
2022/12/08 02:14:24;;;;;;;1.65;1.05;;;4.50;99.90;;;;;;5040360;28;20083;-75
2022/12/08 02:17:19;;;;;;;2.42;1.00;;;4.50;99.90;;;;;;5037297;28;20381;-74
2022/12/08 02:20:07;;;;;;;1.92;1.08;;;4.40;99.90;;;;;;5035700;28;20087;-75
2022/12/08 02:23:05;;;;;;;3.42;1.30;;;4.40;99.90;;;;;;5035418;28;20100;-74
2022/12/08 02:26:04;;;;;;;1.38;0.90;;;4.40;99.90;;;;;;5020491;28;20073;-74
2022/12/08 02:28:51;;;;;;;2.47;1.17;;;4.50;99.90;;;;;;5052602;28;20030;-75
2022/12/08 02:31:42;;;;;;;1.20;1.10;;;4.50;99.90;;;;;;5054736;28;20026;-75
2022/12/08 02:34:26;;;;;;;2.72;1.00;;;4.50;99.90;;;;;;5041065;28;20080;-75
2022/12/08 02:37:10;;;;;;;1.92;1.38;;;4.60;99.90;;;;;;5042481;28;20053;-76
2022/12/08 02:40:07;;;;;;;2.08;1.40;;;4.60;99.90;;;;;;5056110;28;20103;-77
2022/12/08 02:42:43;;;;;;;1.70;1.10;;;4.70;99.90;;;;;;5045415;28;20033;-75
2022/12/08 02:45:36;;;;;;;3.13;1.15;;;4.70;99.90;;;;;;5022406;28;20382;-75
2022/12/08 02:48:01;;;;;;;2.83;1.80;;;4.70;99.90;;;;;;5041364;28;20060;-75
2022/12/08 02:50:27;;;;;;;2.35;1.00;;;4.80;99.90;;;;;;5036285;28;20021;-75
2022/12/08 02:52:53;;;;;;;0.80;0.68;;;4.80;99.90;;;;;;5039000;28;20523;-75
2022/12/08 02:55:22;;;;;;;1.20;0.88;;;4.90;99.90;;;;;;5038554;28;20477;-75
2022/12/08 02:57:53;;;;;;;1.77;1.08;;;4.90;99.90;;;;;;5038420;28;20401;-75
2022/12/08 03:00:21;;;;;;;1.77;0.60;;;4.90;99.90;;;;;;5035039;28;20021;-76
2022/12/08 03:02:59;;;;;;;4.13;0.82;;;4.90;99.90;;;;;;5034371;28;20021;-76
2022/12/08 03:05:41;;;;;;;2.15;0.70;;;4.90;99.90;;;;;;5035535;28;20029;-75
2022/12/08 03:08:14;;;;;;;1.98;0.65;;;4.90;99.90;;;;;;5034724;28;20026;-75
2022/12/08 03:10:45;;;;;;;2.92;0.70;;;4.80;99.90;;;;;;5034586;28;20025;-75
2022/12/08 03:13:15;;;;;;;2.58;0.98;;;4.70;99.90;;;;;;5034738;28;20030;-76
2022/12/08 03:15:49;;;;;;;2.08;1.13;;;4.60;99.90;;;;;;5034849;28;20470;-75
2022/12/08 03:18:17;;;;;;;3.78;0.85;;;4.60;99.90;;;;;;5034143;28;20045;-76
2022/12/08 03:20:44;;;;;;;3.17;0.80;;;4.60;99.90;;;;;;5035045;28;20421;-74
2022/12/08 03:23:13;;;;;;;7.75;1.00;;;4.50;99.90;;;;;;5034594;28;20033;-75
2022/12/08 03:25:45;;;;;;;2.72;0.85;;;4.50;99.90;;;;;;5033817;28;20045;-76
2022/12/08 03:28:11;;;;;;;3.42;0.60;;;4.50;99.90;;;;;;5034644;28;20104;-75
2022/12/08 03:30:43;;;;;;;3.20;0.80;;;4.50;99.90;;;;;;5034155;28;20049;-75
2022/12/08 03:33:29;;;;;;;4.53;0.77;;;4.40;99.90;;;;;;5033619;28;20025;-75
2022/12/08 03:35:56;;;;;;;2.15;0.65;;;4.50;99.90;;;;;;5035247;28;20416;-74
2022/12/08 03:38:22;;;;;;;4.53;0.60;;;4.50;99.90;;;;;;5033141;28;20037;-75
2022/12/08 03:43:53;;;;;;;5.30;0.82;;;4.50;99.90;;;;;;5013250;28;20382;-75
2022/12/08 03:46:22;;;;;;;5.00;0.50;;;4.60;99.90;;;;;;5031720;28;20036;-75
2022/12/08 03:48:48;;;;;;;1.48;0.57;;;4.70;99.90;;;;;;5034050;28;20025;-76
2022/12/08 03:51:14;;;;;;;9.45;1.08;;;4.70;99.90;;;;;;5034100;28;20425;-75
2022/12/08 03:53:40;;;;;;;4.35;0.60;;;4.70;99.90;;;;;;5033813;28;20041;-74
2022/12/08 03:56:21;;;;;;;1.58;0.38;;;4.60;99.90;;;;;;5034158;28;20082;-75
2022/12/08 03:58:46;;;;;;;;;;;4.60;99.90;;;;;;5034420;28;20033;-75
2022/12/08 04:01:12;;;;;;;2.55;0.30;;;4.60;99.90;;;;;;5032720;28;19905;-75
2022/12/08 04:03:37;;;;;;;1.38;0.28;;;4.60;99.90;;;;;;5033728;28;20025;-76
2022/12/08 04:06:03;;;;;;;2.17;0.50;;;4.50;99.90;;;;;;5033164;28;20025;-75
2022/12/08 04:08:29;;;;;;;6.78;0.57;;;4.50;99.90;;;;;;5033477;28;20061;-75
2022/12/08 04:10:54;;;;;;;1.60;0.47;;;4.40;99.90;;;;;;5033171;28;20025;-75
2022/12/08 04:13:20;;;;;;;2.75;0.43;;;4.40;99.90;;;;;;5033408;28;20030;-75
2022/12/08 04:15:46;;;;;;;4.13;0.50;;;4.30;99.90;;;;;;5033799;28;20522;-77
2022/12/08 04:18:12;;;;;;;6.38;0.60;;;4.20;99.90;;;;;;5033101;28;20038;-75
2022/12/08 04:20:40;;;;;;;3.90;0.40;;;4.20;99.90;;;;;;5033399;28;20028;-76
2022/12/08 04:23:06;;;;;;;5.57;0.52;;;4.10;99.90;;;;;;5033045;28;20021;-75
2022/12/08 04:25:32;;;;;;;0.70;0.28;;;4.10;99.90;;;;;;5032895;28;20420;-75
2022/12/08 04:27:57;;;;;;;1.40;0.68;;;4.10;99.90;;;;;;5032572;28;20454;-76
2022/12/08 04:30:23;;;;;;;3.47;0.73;;;4.10;99.90;;;;;;5033034;28;20049;-76
2022/12/08 04:32:48;;;;;;;2.50;0.50;;;4.20;99.90;;;;;;5033517;28;20025;-75
2022/12/08 04:35:14;;;;;;;1.65;0.57;;;4.30;99.90;;;;;;5031882;28;20548;-75
2022/12/08 04:37:39;;;;;;;4.07;0.98;;;4.30;99.90;;;;;;5033248;28;20035;-74
2022/12/08 04:40:05;;;;;;;1.08;0.70;;;4.30;99.90;;;;;;5032597;28;20071;-74
2022/12/08 04:42:31;;;;;;;1.88;0.90;;;4.30;99.90;;;;;;5032065;28;20033;-75
2022/12/08 04:44:57;;;;;;;2.33;0.70;;;4.40;99.90;;;;;;5032188;28;20075;-74
2022/12/08 04:47:22;;;;;;;2.70;0.60;;;4.30;99.90;;;;;;5032950;28;20037;-75
2022/12/08 04:49:48;;;;;;;2.25;0.65;;;4.30;99.90;;;;;;5031959;28;20028;-75
2022/12/08 04:52:13;;;;;;;3.85;0.70;;;4.30;99.90;;;;;;5033285;28;20029;-74
2022/12/08 04:54:39;;;;;;;0.50;0.30;;;4.40;99.90;;;;;;5035379;28;20056;-74
2022/12/08 04:57:04;;;;;;;1.10;0.45;;;4.30;99.90;;;;;;5035309;28;20347;-75
2022/12/08 04:59:30;;;;;;;1.65;0.40;;;4.10;99.90;;;;;;5032221;28;20071;-75
2022/12/08 05:01:56;;;;;;;1.23;0.60;;;4.00;99.90;;;;;;5031182;28;20052;-74
2022/12/08 05:04:21;;;;;;;12.18;1.42;;;4.00;99.90;;;;;;5031789;28;20029;-74
2022/12/08 05:06:47;;;;;;;3.50;0.47;;;3.90;99.90;;;;;;5032525;28;20018;-75
2022/12/08 05:09:12;;;;;;;1.90;0.47;;;3.90;99.90;;;;;;5032703;28;20021;-75
2022/12/08 05:11:40;;;;;;;2.88;0.70;;;3.90;99.90;;;;;;5032204;28;20022;-74
2022/12/08 05:14:09;;;;;;;1.02;0.57;;;3.90;99.90;;;;;;5032480;28;20026;-75
2022/12/08 05:16:36;;;;;;;1.90;0.60;;;3.80;99.90;;;;;;5031489;28;20113;-75
2022/12/08 05:19:02;;;;;;;2.20;0.60;;;3.70;99.90;;;;;;5032062;28;20500;-74
2022/12/08 05:21:27;;;;;;;3.17;0.80;;;3.80;99.90;;;;;;5032605;28;20029;-75
2022/12/08 05:23:53;;;;;;;8.55;0.70;;;3.90;99.90;;;;;;5032071;28;20021;-75
2022/12/08 05:26:18;;;;;;;1.95;1.20;;;3.90;99.90;;;;;;5033653;28;20080;-75
2022/12/08 05:28:44;;;;;;;5.15;0.75;;;3.90;99.90;;;;;;5036966;28;20027;-75
2022/12/08 05:31:12;;;;;;;1.40;0.60;;;3.90;99.90;;;;;;5035317;28;20081;-74
2022/12/08 05:33:37;;;;;;;5.50;1.95;;;3.80;99.90;;;;;;5034790;28;20029;-74
2022/12/08 05:36:03;;;;;;;5.20;1.65;;;3.90;99.90;;;;;;5033663;28;20370;-74
2022/12/08 05:38:29;;;;;;;3.95;1.08;;;3.90;99.90;;;;;;5035383;28;20389;-74
2022/12/08 05:40:54;;;;;;;3.85;1.05;;;3.90;99.90;;;;;;5035981;28;20026;-75
2022/12/08 05:43:20;;;;;;;4.28;0.52;;;3.90;99.90;;;;;;5036390;28;20487;-74
2022/12/08 05:45:46;;;;;;;3.03;0.63;;;4.00;99.90;;;;;;5035297;28;20029;-74
2022/12/08 05:48:11;;;;;;;1.63;0.40;;;3.90;99.90;;;;;;5035900;28;20028;-73
2022/12/08 05:50:37;;;;;;;1.55;0.38;;;4.00;99.90;;;;;;5036408;28;20425;-76
2022/12/08 05:53:03;;;;;;;2.75;0.80;;;4.00;99.90;;;;;;5035295;28;20047;-74
2022/12/08 05:55:28;;;;;;;3.35;0.60;;;3.90;99.90;;;;;;5036244;28;20496;-72
2022/12/08 05:57:54;;;;;;;2.25;0.50;;;3.90;99.90;;;;;;5035524;28;20466;-74
2022/12/08 06:00:20;;;;;;;2.35;0.50;;;3.80;99.90;;;;;;5035482;28;20128;-74
2022/12/08 06:02:46;;;;;;;3.17;0.70;;;3.80;99.90;;;;;;5023970;28;20026;-75
2022/12/08 06:05:11;;;;;;;5.55;0.80;;;3.80;99.90;;;;;;5015823;28;20524;-73
2022/12/08 06:07:40;;;;;;;6.80;1.38;;;3.80;99.90;;;;;;5015891;28;20055;-74
2022/12/08 06:10:06;;;;;;;8.15;1.98;;;3.90;99.90;;;;;;5018343;28;20032;-74
2022/12/08 06:12:32;;;;;;;3.55;0.43;;;3.90;99.90;;;;;;5017802;28;20022;-74
2022/12/08 06:14:57;;;;;;;1.83;0.60;;;4.00;99.90;;;;;;5015815;28;20033;-74
2022/12/08 06:17:23;;;;;;;6.47;0.60;;;4.00;99.90;;;;;;5023188;28;20362;-74
2022/12/08 06:19:48;;;;;;;1.65;0.57;;;4.00;99.90;;;;;;5028836;28;20116;-73
2022/12/08 06:22:14;;;;;;;2.33;0.70;;;4.20;99.90;;;;;;5035259;28;20013;-73
2022/12/08 06:24:39;;;;;;;5.15;0.50;;;4.20;99.90;;;;;;5035262;28;20082;-75
2022/12/08 06:27:05;;;;;;;5.35;0.40;;;4.10;99.90;;;;;;5034270;28;20017;-74
2022/12/08 06:29:30;;;;;;;0.20;0.20;;;4.00;99.90;;;;;;5016562;28;20050;-75
2022/12/08 06:31:56;;;;;;;0.32;0.20;;;4.10;99.90;;;;;;5030133;28;20030;-75
2022/12/08 06:34:21;;;;;;;0.10;0.10;;;3.70;99.90;;;;;;5034200;28;20271;-74
2022/12/08 06:36:47;;;;;;;0.30;0.10;;;3.60;99.90;;;;;;5035840;28;20033;-75
2022/12/08 06:39:13;;;;;;;0.10;0.10;;;3.30;99.90;;;;;;5034444;28;20032;-76
2022/12/08 06:42:42;;;;;;;0.30;0.15;;;3.20;99.90;;;;;;5034833;28;20393;-77
2022/12/08 06:44:24;;;;;;;1.08;0.20;;;3.10;99.90;;;;;;5035182;28;20500;-75
2022/12/08 06:46:49;;;;;;;0.70;0.20;;;2.90;99.90;;;;;;5033693;28;20029;-76
2022/12/08 06:49:15;;;;;;;1.23;0.20;;;2.90;99.90;;;;;;5032595;28;20060;-74
2022/12/08 06:51:40;;;;;;;1.65;0.30;;;2.80;99.90;;;;;;5033397;28;20091;-74
2022/12/08 06:54:06;;;;;;;0.50;0.20;;;2.80;99.90;;;;;;5039905;28;20017;-77
2022/12/08 06:56:31;;;;;;;0.73;0.20;;;2.80;99.90;;;;;;5040262;28;20037;-74
2022/12/08 06:58:57;;;;;;;0.98;0.30;;;2.80;99.90;;;;;;5033906;28;20029;-74
2022/12/08 07:01:23;;;;;;;0.30;0.30;;;2.90;99.90;;;;;;5034414;28;20470;-75
2022/12/08 07:03:48;;;;;;;0.90;0.70;;;2.80;99.90;;;;;;5034292;28;20363;-76
2022/12/08 07:06:21;;;;;;;2.15;0.70;;;2.80;99.90;;;;;;5034733;28;20024;-74
2022/12/08 07:08:46;;;;;;;2.00;0.90;;;2.80;99.90;;;;;;5035352;28;20022;-76
2022/12/08 07:11:13;;;;;;;0.40;0.40;;;2.90;99.90;;;;;;5034066;28;20140;-75
2022/12/08 07:13:40;;;;;;;1.85;0.50;;;2.90;99.90;;;;;;5034856;28;20017;-76
2022/12/08 07:16:08;;;;;;;0.55;0.50;;;2.90;99.90;;;;;;5034020;28;20018;-74
2022/12/08 07:18:34;;;;;;;0.35;0.35;;;2.90;99.90;;;;;;5034918;28;20037;-74
2022/12/08 07:21:08;;;;;;;0.93;0.43;;;2.80;99.90;;;;;;5034573;28;20473;-74
2022/12/08 07:23:35;;;;;;;1.75;0.47;;;3.10;99.90;;;;;;5034161;28;20037;-75
2022/12/08 07:26:06;;;;;;;0.75;0.38;;;2.70;99.90;;;;;;5033898;28;20389;-74
2022/12/08 07:28:33;;;;;;;0.50;0.50;;;2.70;99.90;;;;;;5034140;28;20068;-75
2022/12/08 07:30:59;;;;;;;0.90;0.82;;;2.70;99.90;;;;;;5033998;28;20073;-75
2022/12/08 07:33:25;;;;;;;0.82;0.45;;;2.70;99.90;;;;;;5034306;28;20056;-74
2022/12/08 07:35:58;;;;;;;0.75;0.20;;;2.80;99.90;;;;;;5034254;28;20026;-74
2022/12/08 07:38:25;;;;;;;0.47;0.32;;;2.80;99.90;;;;;;5033784;28;20159;-75
2022/12/08 07:40:51;;;;;;;0.57;0.38;;;2.80;99.90;;;;;;5033728;28;20021;-74
2022/12/08 07:43:17;;;;;;;0.80;0.40;;;2.80;99.90;;;;;;5034289;28;20033;-75
2022/12/08 07:45:43;;;;;;;0.82;0.65;;;2.80;99.90;;;;;;5033441;28;20029;-76
2022/12/08 07:48:09;;;;;;;0.70;0.70;;;2.80;99.90;;;;;;5034704;28;20345;-75
2022/12/08 07:50:34;;;;;;;1.75;0.70;;;2.80;99.90;;;;;;5035086;28;20029;-74
2022/12/08 07:53:00;;;;;;;2.45;0.50;;;2.80;99.90;;;;;;5034896;28;20021;-75
2022/12/08 07:55:26;;;;;;;2.47;0.63;;;2.90;99.90;;;;;;5035520;28;20029;-75
2022/12/08 07:57:51;;;;;;;6.53;0.70;;;2.90;99.90;;;;;;5035337;28;20010;-75
2022/12/08 08:00:18;;;;;;;3.45;2.40;;;2.90;99.90;;;;;;5034894;28;20382;-74
2022/12/08 08:02:44;;;;;;;4.15;3.72;;;3.00;99.90;;;;;;5034165;28;20022;-74
2022/12/08 08:05:11;;;;;;;9.77;5.68;;;3.00;99.90;;;;;;5033492;28;20030;-74
2022/12/08 08:07:37;;;;;;;4.88;1.80;;;3.10;99.90;;;;;;5034305;28;20033;-75
2022/12/08 08:10:05;;;;;;;2.30;0.90;;;3.00;99.90;;;;;;5035416;28;20429;-75
2022/12/08 08:12:31;;;;;;;1.23;0.90;;;3.10;99.90;;;;;;5034661;28;20068;-76
2022/12/08 08:15:00;;;;;;;1.10;1.00;;;3.10;99.90;;;;;;5033986;28;20026;-74
2022/12/08 08:17:25;;;;;;;2.13;1.40;;;3.10;99.90;;;;;;5034715;28;20025;-75
2022/12/08 08:19:51;;;;;;;2.85;1.60;;;3.20;99.90;;;;;;5033038;28;20033;-75
2022/12/08 08:22:16;;;;;;;2.30;1.58;;;3.20;99.90;;;;;;5034379;28;20053;-76
2022/12/08 08:24:42;;;;;;;2.15;1.90;;;3.30;99.90;;;;;;5034527;28;20104;-76
2022/12/08 08:27:08;;;;;;;3.45;2.35;;;3.30;99.90;;;;;;5033273;28;20024;-76
2022/12/08 08:29:33;;;;;;;3.88;2.65;;;3.40;99.90;;;;;;5034730;28;20045;-76
2022/12/08 08:31:59;;;;;;;5.47;2.80;;;3.40;99.90;;;;;;5034115;28;20484;-77
2022/12/08 08:34:24;;;;;;;6.55;2.95;;;3.40;99.90;;;;;;5032581;28;20443;-78
2022/12/08 08:36:50;;;;;;;2.80;2.30;;;3.50;99.90;;;;;;5033821;28;20049;-75
2022/12/08 08:39:17;;;;;;;3.15;1.95;;;3.50;99.90;;;;;;5033476;28;20038;-77
2022/12/08 08:41:42;;;;;;;3.33;2.20;;;3.50;99.90;;;;;;5033999;28;20469;-76
2022/12/08 08:44:08;;;;;;;3.97;3.03;;;3.60;99.90;;;;;;5032842;28;20033;-77
2022/12/08 08:46:33;;;;;;;3.20;2.80;;;3.60;99.90;;;;;;5036384;28;20358;-75
2022/12/08 08:48:59;;;;;;;5.32;3.28;;;3.60;99.90;;;;;;5032772;28;20025;-76
2022/12/08 08:51:25;;;;;;;5.28;2.90;;;3.70;99.90;;;;;;5033701;28;20382;-77
2022/12/08 08:53:51;;;;;;;4.10;3.20;;;3.70;99.90;;;;;;5033266;28;20036;-77
2022/12/08 08:56:18;;;;;;;3.70;3.40;;;3.80;99.90;;;;;;5032247;28;20029;-76
2022/12/08 08:58:45;;;;;;;3.50;3.20;;;3.80;99.90;;;;;;5029962;28;20045;-77
2022/12/08 09:01:19;;;;;;;5.68;3.40;;;3.70;99.90;;;;;;5032681;28;20481;-76
2022/12/08 09:03:46;;;;;;;6.35;3.65;;;3.80;99.90;;;;;;5030201;28;20063;-75
2022/12/08 09:06:13;;;;;;;4.45;3.13;;;3.80;99.90;;;;;;5031960;28;20433;-77
2022/12/08 09:08:40;;;;;;;4.30;2.92;;;3.80;99.90;;;;;;5022613;28;20026;-78
2022/12/08 09:11:06;;;;;;;2.88;2.67;;;3.80;99.90;;;;;;5034092;28;20032;-76
2022/12/08 09:13:32;;;;;;;4.70;3.33;;;3.80;99.90;;;;;;5032856;28;20385;-75
2022/12/08 09:16:03;;;;;;;7.28;3.70;;;3.80;99.90;;;;;;5032846;28;20085;-76
2022/12/08 09:18:29;;;;;;;8.65;6.18;;;3.80;99.90;;;;;;5033716;28;20096;-77
2022/12/08 09:20:55;;;;;;;3.80;3.20;;;3.90;99.90;;;;;;5033484;28;20354;-76
2022/12/08 09:23:21;;;;;;;3.17;2.03;;;3.90;99.90;;;;;;5033553;28;20035;-77
2022/12/08 09:25:47;;;;;;;1.70;1.60;;;3.90;99.90;;;;;;5033578;28;20028;-76
2022/12/08 09:28:15;;;;;;;1.88;1.02;;;3.90;99.90;;;;;;5032466;28;20025;-76
2022/12/08 09:30:41;;;;;;;1.50;0.80;;;3.80;99.90;;;;;;5031354;28;20125;-75
2022/12/08 09:33:07;;;;;;;4.55;0.90;;;3.80;99.90;;;;;;5032412;28;20117;-76
2022/12/08 09:35:32;;;;;;;1.38;0.80;;;3.70;99.90;;;;;;5033040;28;20021;-76
2022/12/08 09:37:58;;;;;;;4.63;1.33;;;3.60;99.90;;;;;;5032371;28;20022;-77
2022/12/08 09:40:25;;;;;;;4.20;1.83;;;3.60;99.90;;;;;;5033213;28;20079;-75
2022/12/08 09:42:59;;;;;;;3.00;2.53;;;3.60;99.90;;;;;;5032750;28;20064;-76
2022/12/08 09:45:28;;;;;;;2.67;2.10;;;3.60;99.90;;;;;;5032431;28;20095;-74
2022/12/08 09:48:06;;;;;;;4.35;3.88;;;3.60;99.90;;;;;;5033408;28;20481;-76
2022/12/08 09:50:57;;;;;;;9.52;6.20;;;3.60;99.90;;;;;;5031979;28;20068;-77
2022/12/08 09:53:55;;;;;;;4.85;3.70;;;3.60;99.90;;;;;;5033511;28;20094;-76
2022/12/08 09:56:23;;;;;;;2.40;1.48;;;3.60;99.90;;;;;;5033645;28;20033;-76
2022/12/08 09:59:05;;;;;;;2.60;1.20;;;3.70;99.90;;;;;;5033108;28;20141;-76
2022/12/08 10:01:36;;;;;;;2.75;1.27;;;3.80;99.90;;;;;;5032922;28;20470;-77
2022/12/08 10:04:03;;;;;;;1.50;1.02;;;3.80;99.90;;;;;;5033309;28;20061;-77
2022/12/08 10:06:52;;;;;;;1.50;1.30;;;3.90;99.90;;;;;;5032816;28;20429;-76
2022/12/08 10:09:27;;;;;;;1.77;0.90;;;4.00;99.90;;;;;;5033738;28;20033;-76
2022/12/08 10:12:24;;;;;;;1.52;0.95;;;5.10;99.90;;;;;;5032520;28;20033;-76
2022/12/08 10:15:25;;;;;;;5.57;3.20;;;4.00;99.90;;;;;;5036039;28;20025;-77
2022/12/08 10:17:53;;;;;;;3.97;2.20;;;4.00;99.90;;;;;;5029642;28;20029;-75
2022/12/08 10:20:33;;;;;;;7.53;3.45;;;4.00;99.90;;;;;;5035702;28;20421;-76
2022/12/08 10:23:11;;;;;;;2.40;1.30;;;4.00;99.90;;;;;;5037453;28;20025;-76
2022/12/08 10:25:48;;;;;;;1.40;0.90;;;4.00;99.90;;;;;;5036670;28;20032;-75
2022/12/08 10:28:14;;;;;;;0.57;0.52;;;4.50;99.90;;;;;;5036082;28;20045;-76
2022/12/08 10:30:41;;;;;;;2.15;0.68;;;4.00;99.90;;;;;;5035641;28;20129;-75
2022/12/08 10:33:15;;;;;;;1.02;0.80;;;4.10;99.90;;;;;;5035264;28;20541;-76
2022/12/08 10:36:01;;;;;;;2.35;0.88;;;4.10;99.90;;;;;;5036340;28;20080;-77
2022/12/08 10:38:33;;;;;;;0.80;0.73;;;4.00;99.90;;;;;;5036707;28;20061;-76
2022/12/08 10:41:12;;;;;;;0.77;0.75;;;4.10;99.90;;;;;;5035707;28;20084;-76
2022/12/08 10:43:43;;;;;;;1.65;1.33;;;4.10;99.90;;;;;;5035835;28;20093;-77
2022/12/08 10:46:20;;;;;;;1.60;1.50;;;4.10;99.90;;;;;;5036294;28;20105;-77
2022/12/08 10:48:55;;;;;;;1.35;1.25;;;4.10;99.90;;;;;;5035890;28;20548;-76
2022/12/08 10:51:40;;;;;;;1.70;1.60;;;4.00;99.90;;;;;;5036371;28;20064;-76
2022/12/08 10:54:31;;;;;;;1.85;1.75;;;4.10;99.90;;;;;;5035924;28;20117;-76
2022/12/08 10:56:57;;;;;;;2.15;2.05;;;4.00;99.90;;;;;;5036983;28;20029;-76
2022/12/08 10:59:24;;;;;;;2.25;2.05;;;4.10;99.90;;;;;;5036238;28;20038;-77
2022/12/08 11:01:52;;;;;;;2.30;2.15;;;4.20;99.90;;;;;;5035748;28;20032;-76
2022/12/08 11:04:22;;;;;;;2.40;2.20;;;4.20;99.90;;;;;;5036168;28;20504;-76
2022/12/08 11:06:50;;;;;;;3.28;2.70;;;4.20;99.90;;;;;;5034424;28;20022;-76
2022/12/08 11:09:19;;;;;;;3.28;2.55;;;4.30;99.90;;;;;;5035117;28;20064;-76
2022/12/08 11:11:57;;;;;;;3.03;2.80;;;4.20;99.90;;;;;;5035849;28;20017;-77
2022/12/08 11:14:23;;;;;;;2.92;2.72;;;4.30;99.90;;;;;;5035411;28;20481;-77
2022/12/08 11:16:51;;;;;;;3.38;2.83;;;4.40;99.90;;;;;;5035334;28;20028;-76
2022/12/08 11:19:19;;;;;;;4.45;4.05;;;4.40;99.90;;;;;;5036226;28;20103;-76
2022/12/08 11:21:46;;;;;;;6.97;4.10;;;4.50;99.90;;;;;;5036567;28;20021;-77
2022/12/08 11:24:27;;;;;;;2.95;2.75;;;4.50;99.90;;;;;;5034769;28;20025;-77
2022/12/08 11:27:03;;;;;;;3.13;2.83;;;4.60;99.90;;;;;;5036765;28;20021;-76
2022/12/08 11:29:32;;;;;;;3.38;3.08;;;4.50;99.90;;;;;;5035515;28;20057;-76
2022/12/08 11:32:00;;;;;;;3.30;2.97;;;4.60;99.90;;;;;;5035835;28;20022;-70
2022/12/08 11:34:40;;;;;;;2.67;2.47;;;4.60;99.90;;;;;;5035872;28;20029;-75
2022/12/08 11:37:15;;;;;;;2.42;2.22;;;4.60;99.90;;;;;;5035299;28;20108;-76
2022/12/08 11:39:47;;;;;;;2.25;2.05;;;4.60;99.90;;;;;;5035752;28;20040;-76
2022/12/08 11:42:17;;;;;;;2.33;2.22;;;4.70;99.90;;;;;;5035680;28;20041;-77
2022/12/08 11:44:52;;;;;;;3.10;2.80;;;4.70;99.90;;;;;;5035893;28;20040;-75
2022/12/08 11:47:24;;;;;;;3.20;3.00;;;4.80;99.90;;;;;;5032962;28;20040;-77
2022/12/08 11:50:15;;;;;;;3.72;3.42;;;4.80;99.90;;;;;;5032434;28;20028;-77
2022/12/08 11:52:47;;;;;;;5.10;3.30;;;4.90;99.90;;;;;;5030799;28;20040;-76
2022/12/08 11:55:33;;;;;;;3.08;2.88;;;4.90;99.90;;;;;;5035165;28;20044;-77
2022/12/08 11:58:13;;;;;;;4.38;2.92;;;4.90;99.90;;;;;;5034638;28;20049;-78
2022/12/08 12:00:39;;;;;;;7.57;2.70;;;4.90;99.90;;;;;;5032636;28;20037;-76
2022/12/08 12:03:23;;;;;;;6.10;2.78;;;4.90;99.90;;;;;;5032096;28;20017;-76
2022/12/08 12:06:11;;;;;;;3.47;2.33;;;4.90;99.90;;;;;;5033398;28;20152;-77
2022/12/08 12:09:13;;;;;;;2.78;2.17;;;4.90;99.90;;;;;;5035325;28;20040;-76
2022/12/08 12:12:14;;;;;;;3.38;2.13;;;4.90;99.90;;;;;;5030366;28;20465;-75
2022/12/08 12:14:55;;;;;;;2.70;2.33;;;4.80;99.90;;;;;;5034335;28;20026;-76
2022/12/08 12:17:52;;;;;;;2.60;2.40;;;4.70;99.90;;;;;;5031400;28;20030;-76
2022/12/08 12:20:21;;;;;;;3.80;2.65;;;4.70;99.90;;;;;;5027189;28;20052;-77
2022/12/08 12:23:04;;;;;;;4.35;3.20;;;4.70;99.90;;;;;;5035262;28;20029;-76
2022/12/08 12:25:33;;;;;;;5.95;2.72;;;4.80;99.90;;;;;;5034403;28;20040;-77
2022/12/08 12:28:04;;;;;;;4.95;3.47;;;4.80;99.90;;;;;;5036319;28;20091;-77
2022/12/08 12:31:02;;;;;;;5.63;2.85;;;4.90;99.90;;;;;;5035495;28;20041;-76
2022/12/08 12:33:30;;;;;;;4.60;2.88;;;4.90;99.90;;;;;;5034154;28;20034;-76
2022/12/08 12:36:00;;;;;;;3.53;3.22;;;4.80;99.90;;;;;;5034504;28;20029;-78
2022/12/08 12:41:24;;;;;;;4.25;2.58;;;4.70;99.90;;;;;;5035402;28;20140;-77
2022/12/08 12:44:21;;;;;;;4.75;3.42;;;4.80;99.90;;;;;;5035634;28;20044;-78
2022/12/08 12:46:49;;;;;;;5.63;3.53;;;4.60;99.90;;;;;;5033841;28;20034;-76
2022/12/08 12:49:40;;;;;;;4.55;2.42;;;4.70;99.90;;;;;;5033933;28;20048;-76
2022/12/08 12:52:14;;;;;;;2.55;1.75;;;4.70;99.90;;;;;;5032943;28;20080;-76
2022/12/08 12:54:49;;;;;;;1.85;1.63;;;4.60;99.90;;;;;;5033230;28;20037;-76
2022/12/08 12:57:33;;;;;;;2.28;1.70;;;4.60;99.90;;;;;;5033559;28;20025;-76
2022/12/08 12:59:59;;;;;;;3.67;1.40;;;4.60;99.90;;;;;;5033626;28;20473;-76
2022/12/08 13:02:50;;;;;;;1.70;1.45;;;4.60;99.90;;;;;;5040585;28;20024;-77
2022/12/08 13:05:20;;;;;;;;;;;4.50;99.90;;;;;;5027825;28;20041;-78
2022/12/08 13:08:03;;;;;;;2.70;1.65;;;4.60;99.90;;;;;;5033518;28;20323;-76
2022/12/08 13:10:38;;;;;;;2.88;1.90;;;4.60;99.90;;;;;;5034046;28;20056;-77
2022/12/08 13:13:15;;;;;;;2.45;1.80;;;4.60;99.90;;;;;;5033464;28;20030;-76
2022/12/08 13:15:54;;;;;;;3.30;1.98;;;4.50;99.90;;;;;;5032339;28;20036;-77
2022/12/08 13:18:41;;;;;;;1.65;1.45;;;4.40;99.90;;;;;;5033874;28;20037;-78
2022/12/08 13:21:09;;;;;;;2.17;1.42;;;4.50;99.90;;;;;;5031971;28;20021;-77
2022/12/08 13:23:44;;;;;;;3.05;1.08;;;4.40;99.90;;;;;;5032525;28;20022;-77
2022/12/08 13:26:23;;;;;;;5.25;1.52;;;4.40;99.90;;;;;;5034447;28;20052;-76
2022/12/08 13:28:58;;;;;;;6.43;2.10;;;4.50;99.90;;;;;;5033752;28;20104;-77